createdAt,value
2018-12-17T00:01:56.786Z,14.37
2018-12-17T00:04:32.380Z,13.93
2018-12-17T00:07:07.254Z,14.30
2018-12-17T00:09:42.268Z,14.10
2018-12-17T00:12:19.384Z,14.43
2018-12-17T00:14:53.774Z,14.53
2018-12-17T00:17:28.402Z,13.83
2018-12-17T00:20:03.578Z,13.90
2018-12-17T00:22:39.693Z,14.47
2018-12-17T00:25:13.989Z,13.87
2018-12-17T00:27:48.363Z,13.93
2018-12-17T00:30:22.657Z,13.57
2018-12-17T00:32:57.207Z,13.60
2018-12-17T00:35:31.642Z,13.30
2018-12-17T00:38:06.178Z,13.23
2018-12-17T00:40:40.750Z,13.27
2018-12-17T00:43:15.043Z,13.20
2018-12-17T00:45:50.146Z,12.90
2018-12-17T00:48:24.839Z,12.30
2018-12-17T00:51:00.039Z,12.00
2018-12-17T00:53:34.803Z,12.13
2018-12-17T00:56:10.656Z,12.73
2018-12-17T00:58:45.489Z,12.43
2018-12-17T01:01:20.511Z,12.60
2018-12-17T01:03:55.491Z,12.47
2018-12-17T01:06:30.072Z,12.33
2018-12-17T01:09:07.799Z,12.27
2018-12-17T01:11:42.554Z,12.23
2018-12-17T01:14:17.230Z,11.80
2018-12-17T01:16:51.893Z,11.67
2018-12-17T01:19:27.819Z,12.13
2018-12-17T01:22:03.558Z,11.70
2018-12-17T01:24:37.863Z,11.83
2018-12-17T01:27:12.164Z,12.50
2018-12-17T01:29:47.420Z,12.30
2018-12-17T01:32:22.062Z,11.87
2018-12-17T01:34:57.639Z,12.40
2018-12-17T01:37:32.532Z,12.60
2018-12-17T01:40:07.806Z,13.17
2018-12-17T01:42:42.331Z,12.90
2018-12-17T01:45:16.888Z,13.03
2018-12-17T01:47:52.026Z,12.03
2018-12-17T01:50:26.856Z,12.60
2018-12-17T01:53:01.610Z,13.10
2018-12-17T01:55:36.174Z,13.70
2018-12-17T01:58:11.051Z,13.60
2018-12-17T02:00:45.936Z,13.40
2018-12-17T02:03:20.714Z,12.80
2018-12-17T02:05:55.378Z,13.27
2018-12-17T02:08:30.676Z,12.93
2018-12-17T02:11:05.850Z,12.77
2018-12-17T02:13:40.392Z,14.03
2018-12-17T02:16:15.342Z,12.83
2018-12-17T02:18:49.758Z,13.97
2018-12-17T02:21:24.417Z,14.03
2018-12-17T02:24:03.655Z,13.70
2018-12-17T02:26:38.250Z,13.20
2018-12-17T02:29:12.798Z,13.30
2018-12-17T02:31:48.188Z,13.17
2018-12-17T02:34:23.339Z,12.97
2018-12-17T02:36:58.110Z,12.07
2018-12-17T02:39:32.544Z,12.53
2018-12-17T02:42:07.387Z,12.33
2018-12-17T02:44:42.742Z,12.60
2018-12-17T02:47:17.273Z,12.57
2018-12-17T02:49:52.225Z,12.40
2018-12-17T02:52:26.498Z,12.47
2018-12-17T02:55:01.351Z,11.60
2018-12-17T02:57:36.178Z,12.37
2018-12-17T03:00:11.879Z,11.93
2018-12-17T03:02:46.543Z,12.03
2018-12-17T03:05:21.790Z,12.03
2018-12-17T03:07:56.535Z,11.73
2018-12-17T03:10:30.958Z,11.90
2018-12-17T03:13:06.683Z,12.13
2018-12-17T03:15:41.098Z,12.00
2018-12-17T03:18:15.944Z,12.20
2018-12-17T03:20:50.971Z,11.83
2018-12-17T03:23:25.631Z,12.37
2018-12-17T03:26:00.338Z,11.83
2018-12-17T03:28:34.850Z,11.80
2018-12-17T03:31:09.344Z,11.93
2018-12-17T03:33:44.250Z,12.57
2018-12-17T03:36:19.177Z,12.17
2018-12-17T03:38:53.483Z,12.20
2018-12-17T03:41:28.559Z,12.43
2018-12-17T03:44:04.131Z,12.30
2018-12-17T03:46:46.554Z,12.00
2018-12-17T03:49:20.978Z,12.07
2018-12-17T03:51:55.975Z,11.73
2018-12-17T03:54:31.072Z,12.30
2018-12-17T03:57:05.817Z,12.83
2018-12-17T03:59:40.423Z,13.43
2018-12-17T04:02:15.125Z,14.37
2018-12-17T04:04:50.040Z,15.10
2018-12-17T04:07:25.594Z,15.60
2018-12-17T04:10:00.237Z,15.90
2018-12-17T04:12:34.627Z,16.40
2018-12-17T04:15:09.455Z,15.33
2018-12-17T04:17:43.889Z,17.47
2018-12-17T04:20:18.286Z,16.67
2018-12-17T04:22:53.346Z,17.23
2018-12-17T04:25:28.159Z,16.20
2018-12-17T04:28:02.780Z,17.47
2018-12-17T04:30:37.906Z,16.43
2018-12-17T04:33:12.818Z,16.13
2018-12-17T04:35:47.706Z,16.63
2018-12-17T04:38:22.203Z,16.37
2018-12-17T04:40:57.259Z,16.37
2018-12-17T04:43:31.994Z,15.87
2018-12-17T04:46:07.251Z,15.83
2018-12-17T04:48:41.935Z,15.63
2018-12-17T04:51:16.723Z,15.80
2018-12-17T04:53:52.372Z,16.00
2018-12-17T04:56:26.851Z,15.63
2018-12-17T04:59:01.543Z,16.30
2018-12-17T05:01:36.232Z,17.00
2018-12-17T05:04:11.211Z,16.83
2018-12-17T05:06:45.818Z,15.90
2018-12-17T05:09:20.569Z,15.50
2018-12-17T05:11:55.689Z,15.73
2018-12-17T05:14:30.306Z,15.40
2018-12-17T05:17:05.118Z,15.83
2018-12-17T05:19:39.997Z,15.13
2018-12-17T05:22:14.805Z,15.77
2018-12-17T05:24:49.845Z,16.30
2018-12-17T05:27:24.876Z,16.93
2018-12-17T05:29:59.208Z,15.90
2018-12-17T05:32:33.694Z,16.37
2018-12-17T05:35:08.960Z,16.80
2018-12-17T05:37:43.761Z,17.23
2018-12-17T05:40:18.646Z,16.47
2018-12-17T05:42:53.734Z,17.07
2018-12-17T05:45:28.504Z,17.17
2018-12-17T05:48:04.134Z,17.93
2018-12-17T05:50:39.147Z,18.73
2018-12-17T05:53:13.539Z,19.90
2018-12-17T05:55:48.792Z,22.60
2018-12-17T05:58:23.675Z,21.37
2018-12-17T06:00:58.627Z,18.10
2018-12-17T06:03:33.006Z,18.37
2018-12-17T06:06:08.410Z,25.87
2018-12-17T06:08:43.367Z,21.20
2018-12-17T06:11:17.786Z,18.73
2018-12-17T06:13:53.058Z,20.40
2018-12-17T06:16:27.791Z,21.47
2018-12-17T06:19:02.830Z,19.80
2018-12-17T06:21:37.146Z,19.60
2018-12-17T06:24:11.769Z,20.33
2018-12-17T06:26:46.158Z,19.23
2018-12-17T06:29:20.850Z,19.03
2018-12-17T06:31:55.519Z,19.40
2018-12-17T06:34:30.068Z,20.60
2018-12-17T06:37:05.133Z,19.97
2018-12-17T06:39:39.853Z,19.07
2018-12-17T06:42:14.850Z,17.97
2018-12-17T06:44:49.886Z,16.30
2018-12-17T06:47:24.545Z,15.87
2018-12-17T06:49:58.988Z,14.93
2018-12-17T06:52:33.379Z,14.80
2018-12-17T06:55:08.123Z,14.83
2018-12-17T06:57:43.493Z,14.20
2018-12-17T07:00:17.927Z,13.90
2018-12-17T07:02:52.831Z,13.83
2018-12-17T07:05:27.239Z,13.83
2018-12-17T07:08:01.609Z,14.43
2018-12-17T07:10:36.708Z,14.83
2018-12-17T07:13:11.964Z,14.30
2018-12-17T07:15:46.703Z,13.70
2018-12-17T07:18:21.152Z,14.53
2018-12-17T07:20:56.259Z,14.13
2018-12-17T07:23:30.798Z,14.07
2018-12-17T07:26:05.950Z,14.03
2018-12-17T07:28:40.616Z,13.30
2018-12-17T07:31:15.581Z,14.20
2018-12-17T07:33:50.039Z,14.63
2018-12-17T07:36:24.529Z,13.70
2018-12-17T07:38:59.083Z,14.60
2018-12-17T07:41:33.881Z,14.53
2018-12-17T07:44:08.430Z,14.93
2018-12-17T07:46:43.086Z,14.60
2018-12-17T07:49:17.811Z,15.07
2018-12-17T07:51:52.486Z,14.43
2018-12-17T07:54:27.119Z,15.03
2018-12-17T07:57:01.782Z,16.57
2018-12-17T07:59:36.482Z,18.17
2018-12-17T08:02:11.135Z,17.23
2018-12-17T08:04:45.630Z,16.83
2018-12-17T08:07:20.701Z,16.20
2018-12-17T08:09:55.889Z,16.23
2018-12-17T08:12:30.798Z,15.93
2018-12-17T08:15:06.792Z,15.83
2018-12-17T08:17:41.427Z,16.20
2018-12-17T08:20:15.827Z,17.23
2018-12-17T08:22:50.462Z,17.97
2018-12-17T08:25:25.642Z,18.37
2018-12-17T08:28:00.519Z,17.70
2018-12-17T08:30:34.872Z,23.20
2018-12-17T08:33:10.278Z,19.60
2018-12-17T08:35:44.650Z,19.00
2018-12-17T08:38:19.321Z,18.00
2018-12-17T08:40:54.985Z,17.73
2018-12-17T08:43:29.711Z,17.63
2018-12-17T08:46:05.254Z,17.20
2018-12-17T08:48:40.162Z,19.00
2018-12-17T08:51:14.836Z,20.40
2018-12-17T08:53:49.317Z,19.93
2018-12-17T08:56:24.447Z,19.30
2018-12-17T08:58:59.489Z,17.83
2018-12-17T09:01:34.494Z,17.33
2018-12-17T09:04:08.802Z,16.73
2018-12-17T09:06:43.982Z,16.97
2018-12-17T09:09:19.070Z,16.30
2018-12-17T09:11:53.731Z,15.90
2018-12-17T09:14:28.286Z,16.03
2018-12-17T09:17:03.419Z,15.70
2018-12-17T09:19:38.593Z,15.33
2018-12-17T09:22:13.738Z,15.70
2018-12-17T09:24:49.346Z,15.87
2018-12-17T09:27:24.857Z,15.33
2018-12-17T09:29:59.296Z,15.57
2018-12-17T09:32:34.026Z,14.60
2018-12-17T09:35:09.930Z,15.07
2018-12-17T09:37:45.013Z,15.17
2018-12-17T09:40:19.903Z,15.80
2018-12-17T09:42:55.853Z,16.30
2018-12-17T09:45:30.530Z,16.60
2018-12-17T09:48:05.835Z,15.87
2018-12-17T09:50:40.751Z,16.87
2018-12-17T09:53:15.906Z,15.27
2018-12-17T09:55:50.991Z,16.97
2018-12-17T09:58:25.866Z,15.80
2018-12-17T10:01:00.617Z,16.13
2018-12-17T10:03:35.156Z,16.00
2018-12-17T10:06:10.187Z,15.43
2018-12-17T10:08:44.649Z,14.53
2018-12-17T10:11:20.290Z,14.07
2018-12-17T10:13:55.671Z,14.43
2018-12-17T10:16:30.158Z,14.77
2018-12-17T10:19:05.213Z,14.30
2018-12-17T10:21:39.831Z,13.47
2018-12-17T10:24:19.242Z,12.67
2018-12-17T10:26:53.881Z,12.80
2018-12-17T10:29:28.631Z,15.23
2018-12-17T10:32:03.486Z,15.50
2018-12-17T10:34:37.802Z,13.10
2018-12-17T10:37:12.787Z,11.63
2018-12-17T10:39:47.726Z,11.50
2018-12-17T10:42:22.831Z,10.23
2018-12-17T10:44:57.573Z,11.27
2018-12-17T10:47:32.662Z,11.63
2018-12-17T10:50:08.571Z,10.60
2018-12-17T10:55:42.750Z,10.87
2018-12-17T10:58:18.024Z,11.33
2018-12-17T11:00:58.585Z,11.80
2018-12-17T11:03:41.068Z,11.20
2018-12-17T11:06:18.047Z,11.83
2018-12-17T11:11:49.215Z,11.87
2018-12-17T11:14:24.463Z,12.37
2018-12-17T11:16:59.518Z,12.07
2018-12-17T11:19:52.239Z,12.23
2018-12-17T11:22:27.256Z,12.50
2018-12-17T11:25:02.004Z,11.87
2018-12-17T11:27:36.989Z,12.47
2018-12-17T11:30:12.968Z,12.13
2018-12-17T11:32:48.104Z,12.50
2018-12-17T11:35:22.505Z,11.20
2018-12-17T11:37:56.970Z,11.43
2018-12-17T11:40:32.050Z,11.43
2018-12-17T11:43:07.500Z,11.90
2018-12-17T11:45:42.678Z,12.43
2018-12-17T11:48:17.635Z,12.40
2018-12-17T11:50:53.000Z,11.90
2018-12-17T11:53:27.337Z,11.90
2018-12-17T11:56:02.587Z,12.13
2018-12-17T11:58:37.194Z,12.43
2018-12-17T12:01:12.753Z,12.00
2018-12-17T12:03:47.607Z,12.37
2018-12-17T12:06:22.760Z,13.73
2018-12-17T12:08:58.138Z,12.10
2018-12-17T12:11:33.381Z,12.50
2018-12-17T12:14:08.163Z,11.70
2018-12-17T12:16:42.658Z,12.20
2018-12-17T12:19:17.618Z,11.30
2018-12-17T12:21:51.910Z,11.33
2018-12-17T12:24:26.777Z,12.50
2018-12-17T12:27:01.254Z,12.70
2018-12-17T12:29:35.642Z,11.60
2018-12-17T12:32:10.352Z,11.97
2018-12-17T12:34:44.794Z,11.70
2018-12-17T12:37:19.877Z,11.33
2018-12-17T12:39:54.550Z,10.33
2018-12-17T12:42:29.443Z,11.70
2018-12-17T12:45:04.790Z,11.57
2018-12-17T12:47:39.814Z,11.63
2018-12-17T12:50:15.399Z,12.30
2018-12-17T12:52:50.097Z,14.50
2018-12-17T12:55:25.350Z,12.67
2018-12-17T12:58:03.504Z,12.67
2018-12-17T13:00:36.762Z,11.13
2018-12-17T13:03:11.893Z,11.40
2018-12-17T13:05:46.563Z,11.50
2018-12-17T13:08:21.356Z,10.77
2018-12-17T13:10:56.746Z,9.80
2018-12-17T13:13:31.018Z,10.27
2018-12-17T13:16:06.257Z,10.50
2018-12-17T13:18:40.795Z,9.87
2018-12-17T13:21:15.294Z,9.53
2018-12-17T13:23:50.031Z,11.80
2018-12-17T13:26:24.887Z,12.43
2018-12-17T13:28:59.681Z,11.27
2018-12-17T13:31:34.946Z,11.20
2018-12-17T13:34:10.275Z,10.87
2018-12-17T13:36:45.342Z,11.00
2018-12-17T13:39:19.769Z,10.67
2018-12-17T13:41:54.334Z,30.97
2018-12-17T13:44:29.037Z,14.83
2018-12-17T13:47:04.634Z,10.83
2018-12-17T13:49:39.663Z,10.33
2018-12-17T13:52:19.369Z,11.13
2018-12-17T13:54:54.671Z,14.20
2018-12-17T13:57:28.958Z,18.70
2018-12-17T14:00:04.011Z,19.87
2018-12-17T14:02:38.456Z,19.43
2018-12-17T14:05:13.303Z,15.53
2018-12-17T14:07:48.490Z,17.10
2018-12-17T14:10:28.846Z,17.67
2018-12-17T14:13:03.922Z,14.77
2018-12-17T14:15:43.638Z,13.57
2018-12-17T14:18:23.471Z,13.67
2018-12-17T14:21:03.511Z,14.33
2018-12-17T14:23:38.018Z,13.57
2018-12-17T14:26:12.878Z,12.30
2018-12-17T14:28:47.766Z,11.43
2018-12-17T14:31:28.601Z,11.47
2018-12-17T14:33:58.786Z,11.87
2018-12-17T14:36:33.878Z,12.53
2018-12-17T14:39:10.134Z,11.90
2018-12-17T14:41:44.547Z,12.00
2018-12-17T14:44:24.302Z,12.40
2018-12-17T14:46:58.747Z,13.13
2018-12-17T14:49:33.081Z,12.50
2018-12-17T14:52:08.182Z,11.50
2018-12-17T14:54:42.839Z,11.37
2018-12-17T14:57:17.779Z,11.47
2018-12-17T14:59:52.224Z,11.77
2018-12-17T15:02:26.955Z,11.30
2018-12-17T15:05:02.232Z,11.83
2018-12-17T15:07:36.574Z,11.40
2018-12-17T15:10:11.982Z,14.77
2018-12-17T15:12:46.256Z,62.57
2018-12-17T15:15:21.630Z,17.10
2018-12-17T15:17:55.938Z,22.13
2018-12-17T15:20:30.670Z,17.40
2018-12-17T15:23:05.549Z,16.80
2018-12-17T15:25:40.224Z,26.67
2018-12-17T15:28:14.616Z,22.30
2018-12-17T15:30:49.718Z,25.30
2018-12-17T15:33:24.567Z,13.27
2018-12-17T15:35:59.887Z,16.90
2018-12-17T15:38:35.047Z,13.47
2018-12-17T15:41:10.352Z,14.20
2018-12-17T15:43:45.022Z,14.53
2018-12-17T15:46:19.447Z,15.70
2018-12-17T15:48:54.534Z,15.73
2018-12-17T15:51:29.356Z,14.07
2018-12-17T15:54:05.010Z,15.47
2018-12-17T15:56:39.454Z,15.17
2018-12-17T15:59:14.763Z,13.83
2018-12-17T16:01:50.200Z,13.83
2018-12-17T16:04:32.550Z,14.27
2018-12-17T16:07:07.279Z,13.17
2018-12-17T16:09:41.574Z,12.80
2018-12-17T16:12:16.735Z,14.47
2018-12-17T16:14:51.561Z,13.57
2018-12-17T16:17:26.883Z,12.80
2018-12-17T16:20:01.483Z,11.47
2018-12-17T16:22:36.119Z,11.80
2018-12-17T16:25:11.243Z,12.47
2018-12-17T16:27:45.846Z,12.47
2018-12-17T16:30:20.386Z,15.80
2018-12-17T16:32:55.618Z,13.07
2018-12-17T16:35:30.181Z,12.83
2018-12-17T16:38:05.351Z,13.53
2018-12-17T16:40:40.088Z,12.40
2018-12-17T16:43:14.458Z,12.60
2018-12-17T16:45:49.647Z,11.80
2018-12-17T16:48:23.958Z,11.77
2018-12-17T16:50:58.359Z,11.00
2018-12-17T16:53:33.127Z,11.17
2018-12-17T16:56:07.503Z,10.53
2018-12-17T16:58:42.078Z,10.00
2018-12-17T17:01:17.214Z,11.83
2018-12-17T17:03:55.873Z,11.30
2018-12-17T17:06:30.341Z,10.67
2018-12-17T17:09:10.183Z,13.60
2018-12-17T17:11:44.676Z,13.77
2018-12-17T17:14:23.638Z,12.90
2018-12-17T17:16:58.226Z,19.57
2018-12-17T17:19:33.030Z,13.30
2018-12-17T17:22:08.150Z,10.93
2018-12-17T17:24:44.481Z,11.83
2018-12-17T17:27:18.946Z,21.57
2018-12-17T17:29:54.470Z,16.60
2018-12-17T17:32:29.710Z,15.57
2018-12-17T17:35:05.687Z,15.47
2018-12-17T17:37:40.251Z,13.80
2018-12-17T17:40:14.530Z,13.57
2018-12-17T17:42:49.040Z,12.50
2018-12-17T17:45:25.103Z,12.73
2018-12-17T17:47:59.942Z,11.67
2018-12-17T17:50:37.800Z,11.80
2018-12-17T17:53:12.972Z,11.23
2018-12-17T17:55:48.784Z,10.97
2018-12-17T17:58:23.649Z,11.67
2018-12-17T18:00:58.576Z,14.93
2018-12-17T18:03:33.225Z,10.93
2018-12-17T18:06:08.422Z,10.93
2018-12-17T18:08:43.077Z,11.33
2018-12-17T18:11:18.747Z,11.43
2018-12-17T18:13:53.838Z,11.53
2018-12-17T18:16:29.716Z,11.13
2018-12-17T18:19:05.314Z,11.00
2018-12-17T18:21:40.348Z,11.07
2018-12-17T18:24:15.792Z,11.83
2018-12-17T18:26:50.510Z,11.47
2018-12-17T18:29:25.275Z,11.07
2018-12-17T18:32:00.035Z,11.93
2018-12-17T18:34:34.778Z,12.80
2018-12-17T18:37:09.695Z,11.83
2018-12-17T18:39:44.667Z,12.10
2018-12-17T18:42:19.433Z,12.10
2018-12-17T18:44:54.608Z,11.90
2018-12-17T18:47:29.995Z,13.87
2018-12-17T18:50:05.475Z,13.70
2018-12-17T18:52:40.283Z,13.80
2018-12-17T18:55:14.627Z,14.33
2018-12-17T18:57:49.063Z,14.60
2018-12-17T19:00:23.655Z,15.03
2018-12-17T19:02:58.098Z,13.67
2018-12-17T19:05:33.226Z,15.40
2018-12-17T19:08:07.831Z,16.00
2018-12-17T19:10:47.864Z,17.07
2018-12-17T19:13:22.530Z,17.07
2018-12-17T19:15:58.011Z,30.57
2018-12-17T19:18:36.043Z,16.40
2018-12-17T19:21:11.152Z,16.67
2018-12-17T19:23:45.874Z,16.00
2018-12-17T19:26:20.638Z,17.93
2018-12-17T19:28:55.467Z,16.80
2018-12-17T19:31:34.557Z,17.73
2018-12-17T19:34:07.210Z,18.73
2018-12-17T19:36:42.403Z,18.50
2018-12-17T19:39:17.223Z,17.93
2018-12-17T19:41:51.707Z,18.27
2018-12-17T19:44:26.532Z,18.00
2018-12-17T19:47:01.290Z,18.37
2018-12-17T19:49:36.453Z,19.27
2018-12-17T19:52:11.098Z,18.87
2018-12-17T19:54:45.822Z,18.80
2018-12-17T19:57:20.167Z,19.37
2018-12-17T19:59:54.902Z,19.97
2018-12-17T20:02:29.207Z,20.13
2018-12-17T20:05:04.490Z,19.23
2018-12-17T20:07:38.975Z,18.90
2018-12-17T20:10:19.438Z,23.27
2018-12-17T20:12:54.342Z,21.13
2018-12-17T20:15:29.091Z,20.93
2018-12-17T20:18:04.063Z,20.70
2018-12-17T20:20:51.634Z,21.80
2018-12-17T20:23:26.281Z,21.47
2018-12-17T20:26:07.317Z,21.77
2018-12-17T20:28:42.295Z,21.40
2018-12-17T20:31:17.015Z,21.90
2018-12-17T20:33:51.431Z,21.60
2018-12-17T20:36:26.705Z,21.60
2018-12-17T20:39:01.023Z,21.23
2018-12-17T20:41:35.915Z,20.97
2018-12-17T20:44:10.327Z,22.07
2018-12-17T20:46:45.270Z,21.60
2018-12-17T20:49:19.805Z,21.53
2018-12-17T20:51:54.098Z,21.30
2018-12-17T20:54:28.623Z,24.50
2018-12-17T20:57:03.506Z,22.30
2018-12-17T20:59:37.806Z,20.97
2018-12-17T21:02:12.175Z,22.37
2018-12-17T21:04:47.298Z,22.83
2018-12-17T21:07:21.812Z,22.70
2018-12-17T21:09:56.299Z,21.40
2018-12-17T21:12:30.677Z,19.97
2018-12-17T21:15:06.702Z,21.13
2018-12-17T21:17:41.246Z,20.23
2018-12-17T21:20:16.935Z,21.67
2018-12-17T21:22:52.245Z,21.60
2018-12-17T21:25:27.015Z,21.67
2018-12-17T21:28:01.831Z,21.47
2018-12-17T21:30:37.093Z,21.30
2018-12-17T21:33:11.406Z,21.90
2018-12-17T21:35:45.702Z,22.07
2018-12-17T21:38:20.105Z,21.30
2018-12-17T21:40:54.830Z,23.17
2018-12-17T21:43:35.900Z,21.50
2018-12-17T21:46:06.620Z,21.43
2018-12-17T21:48:40.904Z,20.63
2018-12-17T21:51:15.343Z,21.00
2018-12-17T21:53:49.726Z,21.40
2018-12-17T21:56:24.251Z,21.77
2018-12-17T21:58:59.486Z,22.03
2018-12-17T22:01:34.334Z,21.40
2018-12-17T22:04:08.843Z,21.57
2018-12-17T22:06:43.408Z,20.17
2018-12-17T22:09:17.978Z,20.60
2018-12-17T22:11:52.346Z,21.17
2018-12-17T22:17:23.711Z,20.50
2018-12-17T22:19:58.572Z,20.73
2018-12-17T22:22:33.033Z,21.93
2018-12-17T22:25:09.274Z,23.93
2018-12-17T22:27:43.978Z,22.17
2018-12-17T22:30:41.272Z,20.63
2018-12-17T22:33:19.677Z,19.60
2018-12-17T22:35:53.210Z,24.17
2018-12-17T22:38:27.561Z,21.33
2018-12-17T22:41:01.919Z,21.27
2018-12-17T22:43:37.203Z,21.23
2018-12-17T22:46:12.555Z,18.33
2018-12-17T22:48:47.727Z,17.57
2018-12-17T22:51:32.392Z,16.97
2018-12-17T22:54:06.721Z,19.00
2018-12-17T22:56:41.143Z,17.50
2018-12-17T22:59:16.115Z,17.70
2018-12-17T23:01:51.364Z,19.40
2018-12-17T23:04:25.727Z,17.57
2018-12-17T23:07:00.403Z,16.97
2018-12-17T23:09:46.790Z,16.47
2018-12-17T23:12:32.663Z,17.37
2018-12-17T23:15:18.634Z,17.10
2018-12-17T23:17:57.006Z,16.17
2018-12-17T23:37:58.067Z,14.73
2018-12-17T23:40:49.073Z,15.03
2018-12-17T23:46:31.210Z,14.17
2018-12-17T23:49:24.397Z,14.43
2018-12-17T23:52:15.891Z,14.20
2018-12-17T23:55:04.888Z,14.70
2018-12-17T23:57:48.174Z,12.90
